createdAt,value
2023-04-18T00:01:08.144Z,27.08
2023-04-18T00:03:38.352Z,27.00
2023-04-18T00:06:05.938Z,21.50
2023-04-18T00:08:34.194Z,23.67
2023-04-18T00:11:01.314Z,24.70
2023-04-18T00:13:28.548Z,25.02
2023-04-18T00:15:55.765Z,24.67
2023-04-18T00:18:26.677Z,24.27
2023-04-18T00:20:54.506Z,21.50
2023-04-18T00:23:22.517Z,24.52
2023-04-18T00:25:49.722Z,22.35
2023-04-18T00:28:16.877Z,23.63
2023-04-18T00:30:44.109Z,24.85
2023-04-18T00:33:11.321Z,24.88
2023-04-18T00:35:38.591Z,25.17
2023-04-18T00:38:05.904Z,23.33
2023-04-18T00:40:33.190Z,24.63
2023-04-18T00:43:00.659Z,20.88
2023-04-18T00:45:27.944Z,22.38
2023-04-18T00:47:56.298Z,25.30
2023-04-18T00:50:24.173Z,23.52
2023-04-18T00:52:52.137Z,26.02
2023-04-18T00:55:20.277Z,28.23
2023-04-18T00:57:47.454Z,28.10
2023-04-18T01:00:15.185Z,24.20
2023-04-18T01:02:42.616Z,25.05
2023-04-18T01:05:10.245Z,21.77
2023-04-18T01:07:41.755Z,30.20
2023-04-18T01:10:10.776Z,28.45
2023-04-18T01:12:37.990Z,28.42
2023-04-18T01:15:05.975Z,26.77
2023-04-18T01:17:35.556Z,22.92
2023-04-18T01:20:06.105Z,22.75
2023-04-18T01:22:33.809Z,28.83
2023-04-18T01:25:01.047Z,25.83
2023-04-18T01:27:28.236Z,25.30
2023-04-18T01:29:55.468Z,24.55
2023-04-18T01:32:22.710Z,24.25
2023-04-18T01:34:50.333Z,23.83
2023-04-18T01:37:17.761Z,23.50
2023-04-18T01:39:45.178Z,25.92
2023-04-18T01:42:12.302Z,23.83
2023-04-18T01:44:39.429Z,25.75
2023-04-18T01:47:06.542Z,25.38
2023-04-18T01:49:33.996Z,23.20
2023-04-18T01:52:01.228Z,22.15
2023-04-18T01:54:28.290Z,25.58
2023-04-18T01:56:55.453Z,21.10
2023-04-18T01:59:22.679Z,26.92
2023-04-18T02:01:49.929Z,21.40
2023-04-18T02:04:18.036Z,23.58
2023-04-18T02:06:46.898Z,23.30
2023-04-18T02:09:14.006Z,25.35
2023-04-18T02:11:43.250Z,26.25
2023-04-18T02:14:10.500Z,23.92
2023-04-18T02:16:38.890Z,19.67
2023-04-18T02:19:06.359Z,30.02
2023-04-18T02:21:33.592Z,26.52
2023-04-18T02:24:00.762Z,21.20
2023-04-18T02:26:27.920Z,23.50
2023-04-18T02:28:58.805Z,24.33
2023-04-18T02:31:26.054Z,22.38
2023-04-18T02:33:53.412Z,23.25
2023-04-18T02:36:22.230Z,24.30
2023-04-18T02:38:49.439Z,25.15
2023-04-18T02:41:19.966Z,27.02
2023-04-18T02:43:47.528Z,27.13
2023-04-18T02:46:16.649Z,24.08
2023-04-18T02:48:47.326Z,24.67
2023-04-18T02:51:15.913Z,25.98
2023-04-18T02:53:43.298Z,25.42
2023-04-18T02:56:10.677Z,22.98
2023-04-18T02:58:56.552Z,26.38
2023-04-18T03:01:37.656Z,27.20
2023-04-18T03:04:09.202Z,27.73
2023-04-18T03:06:40.442Z,31.63
2023-04-18T03:09:08.380Z,23.95
2023-04-18T03:11:39.128Z,25.33
2023-04-18T03:14:06.544Z,26.95
2023-04-18T03:16:41.513Z,31.10
2023-04-18T03:19:11.448Z,27.50
2023-04-18T03:21:38.777Z,26.25
2023-04-18T03:24:06.413Z,20.17
2023-04-18T03:26:35.275Z,24.45
2023-04-18T03:29:03.122Z,26.30
2023-04-18T03:31:30.902Z,23.77
2023-04-18T03:33:58.065Z,27.48
2023-04-18T03:36:28.909Z,28.90
2023-04-18T03:38:56.190Z,21.58
2023-04-18T03:41:24.469Z,28.05
2023-04-18T03:43:51.617Z,25.33
2023-04-18T03:46:19.223Z,23.60
2023-04-18T03:48:46.538Z,24.60
2023-04-18T03:51:14.605Z,23.88
2023-04-18T03:53:41.966Z,23.58
2023-04-18T03:56:09.125Z,25.65
2023-04-18T03:58:47.338Z,22.80
2023-04-18T04:01:14.757Z,21.27
2023-04-18T04:03:42.053Z,27.90
2023-04-18T04:06:09.780Z,27.90
2023-04-18T04:08:36.914Z,25.67
2023-04-18T04:11:04.153Z,28.45
2023-04-18T04:13:31.282Z,25.95
2023-04-18T04:15:58.582Z,25.63
2023-04-18T04:18:31.075Z,18.85
2023-04-18T04:21:00.543Z,27.95
2023-04-18T04:23:38.131Z,26.83
2023-04-18T04:26:05.441Z,24.08
2023-04-18T04:28:43.007Z,22.92
2023-04-18T04:31:11.524Z,23.23
2023-04-18T04:33:41.112Z,28.50
2023-04-18T04:36:18.812Z,25.27
2023-04-18T04:38:48.306Z,25.58
2023-04-18T04:41:16.564Z,27.77
2023-04-18T04:43:44.190Z,23.33
2023-04-18T04:46:20.382Z,22.17
2023-04-18T04:48:50.530Z,24.13
2023-04-18T04:51:19.100Z,24.23
2023-04-18T04:53:46.319Z,25.25
2023-04-18T04:56:13.737Z,28.70
2023-04-18T04:58:40.986Z,26.52
2023-04-18T05:01:18.936Z,30.27
2023-04-18T05:03:46.439Z,26.88
2023-04-18T05:06:20.490Z,23.42
2023-04-18T05:08:48.854Z,22.65
2023-04-18T05:11:17.000Z,29.55
2023-04-18T05:13:44.727Z,32.05
2023-04-18T05:16:12.267Z,26.70
2023-04-18T05:18:41.171Z,24.85
2023-04-18T05:21:08.353Z,29.83
2023-04-18T05:23:37.210Z,34.85
2023-04-18T05:26:05.928Z,28.95
2023-04-18T05:28:33.306Z,29.40
2023-04-18T05:31:03.074Z,28.25
2023-04-18T05:33:33.364Z,29.00
2023-04-18T05:36:00.868Z,29.20
2023-04-18T05:38:28.089Z,35.22
2023-04-18T05:40:55.959Z,31.85
2023-04-18T05:43:23.702Z,27.05
2023-04-18T05:45:52.594Z,27.35
2023-04-18T05:48:20.176Z,28.13
2023-04-18T05:50:47.438Z,30.15
2023-04-18T05:53:14.853Z,27.98
2023-04-18T05:55:42.208Z,29.92
2023-04-18T05:58:09.726Z,28.27
2023-04-18T06:00:36.860Z,30.25
2023-04-18T06:03:04.298Z,26.42
2023-04-18T06:05:31.909Z,31.63
2023-04-18T06:07:59.336Z,25.05
2023-04-18T06:10:26.532Z,29.55
2023-04-18T06:12:53.780Z,27.38
2023-04-18T06:15:21.013Z,29.08
2023-04-18T06:17:48.540Z,27.25
2023-04-18T06:20:15.873Z,25.58
2023-04-18T06:22:43.387Z,29.63
2023-04-18T06:25:10.849Z,29.67
2023-04-18T06:27:38.924Z,27.52
2023-04-18T06:30:16.683Z,29.90
2023-04-18T06:32:44.106Z,30.98
2023-04-18T06:35:11.635Z,29.45
2023-04-18T06:37:38.875Z,28.15
2023-04-18T06:40:06.628Z,30.90
2023-04-18T06:42:33.949Z,27.52
2023-04-18T06:45:01.366Z,26.65
2023-04-18T06:47:29.555Z,29.08
2023-04-18T06:49:56.905Z,29.98
2023-04-18T06:52:24.099Z,29.63
2023-04-18T06:54:53.770Z,27.90
2023-04-18T06:57:21.014Z,29.08
2023-04-18T06:59:48.212Z,31.33
2023-04-18T07:02:15.790Z,29.25
2023-04-18T07:04:43.135Z,26.30
2023-04-18T07:07:10.258Z,27.90
2023-04-18T07:09:37.358Z,31.23
2023-04-18T07:12:04.672Z,27.88
2023-04-18T07:14:34.068Z,29.17
2023-04-18T07:17:02.429Z,27.80
2023-04-18T07:19:29.698Z,30.20
2023-04-18T07:21:57.008Z,28.67
2023-04-18T07:24:25.425Z,30.20
2023-04-18T07:26:54.884Z,24.73
2023-04-18T07:29:22.478Z,25.65
2023-04-18T07:31:50.224Z,30.58
2023-04-18T07:34:17.977Z,30.05
2023-04-18T07:36:45.653Z,27.67
2023-04-18T07:39:12.874Z,25.92
2023-04-18T07:41:39.997Z,27.23
2023-04-18T07:44:07.504Z,28.20
2023-04-18T07:46:34.942Z,28.67
2023-04-18T07:49:02.554Z,28.05
2023-04-18T07:51:32.568Z,22.77
2023-04-18T07:53:59.948Z,24.38
2023-04-18T07:56:28.031Z,23.70
2023-04-18T07:58:55.790Z,22.92
2023-04-18T08:01:24.871Z,28.67
2023-04-18T08:03:54.156Z,27.52
2023-04-18T08:06:21.704Z,26.38
2023-04-18T08:08:49.360Z,24.20
2023-04-18T08:11:17.394Z,23.52
2023-04-18T08:13:45.474Z,22.65
2023-04-18T08:16:16.275Z,19.33
2023-04-18T08:18:45.047Z,24.42
2023-04-18T08:21:12.918Z,22.33
2023-04-18T08:23:41.040Z,21.92
2023-04-18T08:26:09.726Z,22.88
2023-04-18T08:28:38.291Z,23.65
2023-04-18T08:31:06.748Z,21.13
2023-04-18T08:33:34.206Z,22.77
2023-04-18T08:36:01.540Z,19.50
2023-04-18T08:38:28.798Z,22.58
2023-04-18T08:40:56.107Z,14.23
2023-04-18T08:43:24.592Z,16.50
2023-04-18T08:45:58.697Z,21.38
2023-04-18T08:48:27.960Z,17.92
2023-04-18T08:50:59.719Z,19.23
2023-04-18T08:53:27.379Z,19.48
2023-04-18T08:55:56.442Z,14.57
2023-04-18T08:58:25.732Z,21.67
2023-04-18T09:00:54.070Z,16.77
2023-04-18T09:03:41.943Z,18.33
2023-04-18T09:06:09.726Z,19.55
2023-04-18T09:08:37.219Z,17.92
2023-04-18T09:11:29.225Z,15.88
2023-04-18T09:14:10.617Z,18.67
2023-04-18T09:16:47.299Z,17.05
2023-04-18T09:19:18.722Z,16.52
2023-04-18T09:21:48.927Z,18.58
2023-04-18T09:24:28.504Z,14.52
2023-04-18T09:26:57.808Z,15.18
2023-04-18T09:29:47.272Z,16.63
2023-04-18T09:32:25.191Z,16.80
2023-04-18T09:34:58.382Z,13.75
2023-04-18T09:37:26.732Z,12.13
2023-04-18T09:53:07.049Z,12.68
2023-04-18T09:55:35.243Z,9.55
2023-04-18T09:58:04.845Z,12.68
2023-04-18T10:00:34.021Z,13.27
2023-04-18T10:03:09.814Z,13.55
2023-04-18T10:05:41.244Z,16.17
2023-04-18T10:08:09.569Z,19.53
2023-04-18T10:10:38.818Z,16.00
2023-04-18T10:13:11.720Z,15.18
2023-04-18T10:15:39.179Z,16.45
2023-04-18T10:18:11.120Z,15.60
2023-04-18T10:20:41.447Z,13.68
2023-04-18T10:23:36.173Z,10.60
2023-04-18T10:26:07.625Z,11.40
2023-04-18T10:28:55.136Z,8.82
2023-04-18T10:31:27.527Z,12.30
2023-04-18T10:36:28.663Z,21.77
2023-04-18T10:39:23.129Z,10.88
2023-04-18T10:41:52.470Z,13.20
2023-04-18T10:44:23.038Z,11.98
2023-04-18T10:46:53.591Z,11.77
2023-04-18T10:49:32.045Z,9.27
2023-04-18T10:52:01.877Z,13.45
2023-04-18T10:54:33.196Z,11.15
2023-04-18T10:57:03.096Z,9.40
2023-04-18T10:59:31.983Z,11.80
2023-04-18T11:02:14.455Z,12.65
2023-04-18T11:07:08.785Z,11.07
2023-04-18T11:09:36.024Z,12.95
2023-04-18T11:12:09.042Z,9.85
2023-04-18T11:14:52.020Z,8.73
2023-04-18T11:17:24.417Z,13.73
2023-04-18T11:20:18.679Z,13.13
2023-04-18T11:22:52.766Z,8.82
2023-04-18T11:25:23.730Z,13.27
2023-04-18T11:27:57.361Z,9.55
2023-04-18T11:30:24.892Z,7.65
2023-04-18T11:32:52.532Z,8.63
2023-04-18T11:35:19.910Z,7.47
2023-04-18T11:37:47.120Z,10.20
2023-04-18T11:40:14.434Z,8.98
2023-04-18T11:42:42.439Z,11.38
2023-04-18T11:45:13.983Z,8.80
2023-04-18T11:47:43.178Z,7.80
2023-04-18T11:50:12.905Z,8.48
2023-04-18T11:52:42.456Z,12.95
2023-04-18T11:55:21.802Z,11.57
2023-04-18T11:57:56.390Z,11.45
2023-04-18T12:00:41.758Z,9.52
2023-04-18T12:03:16.794Z,11.63
2023-04-18T12:05:44.954Z,9.10
2023-04-18T12:08:17.372Z,10.25
2023-04-18T12:10:51.956Z,13.55
2023-04-18T12:13:27.152Z,11.68
2023-04-18T12:15:54.662Z,12.73
2023-04-18T12:18:24.655Z,12.75
2023-04-18T12:20:54.318Z,12.73
2023-04-18T12:23:42.901Z,11.40
2023-04-18T12:26:15.222Z,12.73
2023-04-18T12:31:11.965Z,8.80
2023-04-18T12:33:39.213Z,12.75
2023-04-18T12:36:08.454Z,10.35
2023-04-18T12:38:36.062Z,12.20
2023-04-18T12:41:03.188Z,10.80
2023-04-18T12:43:30.432Z,12.40
2023-04-18T12:45:57.911Z,9.55
2023-04-18T12:48:24.995Z,11.07
2023-04-18T12:50:52.146Z,10.57
2023-04-18T12:53:19.438Z,12.63
2023-04-18T12:55:46.631Z,8.68
2023-04-18T12:58:18.573Z,10.30
2023-04-18T13:00:46.262Z,9.52
2023-04-18T13:03:13.753Z,11.52
2023-04-18T13:05:41.163Z,6.65
2023-04-18T13:08:16.334Z,7.32
2023-04-18T13:10:45.773Z,8.38
2023-04-18T13:13:13.188Z,9.52
2023-04-18T13:15:40.593Z,9.75
2023-04-18T13:18:08.017Z,8.98
2023-04-18T13:20:35.825Z,7.00
2023-04-18T13:23:03.795Z,7.13
2023-04-18T13:25:31.374Z,6.68
2023-04-18T13:27:59.142Z,9.98
2023-04-18T13:30:26.408Z,8.43
2023-04-18T13:32:55.009Z,6.25
2023-04-18T13:35:22.300Z,6.45
2023-04-18T13:37:49.640Z,7.82
2023-04-18T13:40:16.779Z,11.38
2023-04-18T13:42:44.028Z,11.40
2023-04-18T13:45:11.402Z,6.38
2023-04-18T13:47:39.558Z,8.07
2023-04-18T13:50:07.532Z,9.98
2023-04-18T13:52:35.379Z,8.07
2023-04-18T13:55:02.492Z,6.47
2023-04-18T13:57:32.243Z,6.72
2023-04-18T13:59:59.979Z,11.45
2023-04-18T14:02:27.526Z,5.50
2023-04-18T14:04:55.134Z,8.48
2023-04-18T14:07:22.575Z,7.22
2023-04-18T14:09:50.501Z,7.60
2023-04-18T14:12:18.854Z,6.43
2023-04-18T14:14:46.016Z,6.50
2023-04-18T14:17:13.417Z,4.25
2023-04-18T14:19:40.650Z,7.50
2023-04-18T14:22:08.025Z,6.60
2023-04-18T14:24:36.425Z,5.63
2023-04-18T14:27:04.064Z,7.40
2023-04-18T14:29:31.358Z,8.95
2023-04-18T14:31:59.186Z,5.82
2023-04-18T14:34:26.642Z,6.20
2023-04-18T14:36:54.027Z,6.55
2023-04-18T14:39:21.810Z,7.15
2023-04-18T14:41:49.184Z,8.32
2023-04-18T14:44:17.365Z,7.38
2023-04-18T14:46:44.749Z,6.40
2023-04-18T14:49:12.490Z,8.63
2023-04-18T14:51:40.127Z,10.68
2023-04-18T14:54:07.311Z,9.30
2023-04-18T14:56:34.710Z,5.80
2023-04-18T14:59:02.632Z,9.52
2023-04-18T15:01:30.016Z,7.57
2023-04-18T15:03:57.449Z,7.85
2023-04-18T15:06:24.778Z,6.03
2023-04-18T15:08:52.837Z,6.93
2023-04-18T15:11:20.297Z,9.48
2023-04-18T15:13:47.729Z,8.98
2023-04-18T15:16:14.943Z,6.82
2023-04-18T15:18:43.582Z,10.20
2023-04-18T15:21:11.157Z,11.70
2023-04-18T15:23:38.284Z,9.32
2023-04-18T15:26:06.451Z,11.60
2023-04-18T15:28:33.819Z,11.93
2023-04-18T15:31:01.009Z,9.90
2023-04-18T15:33:28.393Z,13.80
2023-04-18T15:35:55.860Z,9.25
2023-04-18T15:38:23.193Z,10.52
2023-04-18T15:40:51.157Z,11.82
2023-04-18T15:43:18.497Z,12.98
2023-04-18T15:45:47.063Z,10.63
2023-04-18T15:48:14.485Z,10.02
2023-04-18T15:50:42.491Z,17.38
2023-04-18T15:53:09.871Z,13.73
2023-04-18T15:55:37.170Z,18.20
2023-04-18T15:58:04.405Z,15.10
2023-04-18T16:00:31.676Z,14.82
2023-04-18T16:02:59.039Z,15.35
2023-04-18T16:05:26.564Z,14.93
2023-04-18T16:07:56.185Z,15.27
2023-04-18T16:10:23.813Z,14.23
2023-04-18T16:12:51.042Z,15.75
2023-04-18T16:15:18.735Z,16.52
2023-04-18T16:17:46.406Z,17.05
2023-04-18T16:20:13.878Z,16.90
2023-04-18T16:22:41.158Z,13.50
2023-04-18T16:25:09.199Z,16.75
2023-04-18T16:27:36.355Z,13.77
2023-04-18T16:30:05.312Z,22.13
2023-04-18T16:32:32.923Z,14.35
2023-04-18T16:35:00.640Z,17.67
2023-04-18T16:37:28.028Z,14.65
2023-04-18T16:39:55.271Z,19.45
2023-04-18T16:42:22.578Z,21.88
2023-04-18T16:44:49.797Z,17.52
2023-04-18T16:47:16.998Z,17.27
2023-04-18T16:49:46.655Z,17.45
2023-04-18T16:52:14.716Z,13.82
2023-04-18T16:54:41.933Z,26.08
2023-04-18T16:57:09.333Z,17.08
2023-04-18T16:59:36.674Z,19.70
2023-04-18T17:02:04.530Z,17.73
2023-04-18T17:04:31.946Z,20.77
2023-04-18T17:06:59.424Z,16.63
2023-04-18T17:09:26.580Z,14.85
2023-04-18T17:11:53.784Z,13.55
2023-04-18T17:14:20.871Z,19.02
2023-04-18T17:16:49.136Z,16.80
2023-04-18T17:19:17.372Z,15.43
2023-04-18T17:21:44.646Z,15.68
2023-04-18T17:24:11.897Z,15.35
2023-04-18T17:26:39.312Z,16.67
2023-04-18T17:29:06.500Z,15.48
2023-04-18T17:31:34.130Z,12.82
2023-04-18T17:34:01.387Z,15.13
2023-04-18T17:36:28.544Z,17.98
2023-04-18T17:38:56.169Z,15.80
2023-04-18T17:41:23.288Z,16.23
2023-04-18T17:43:53.675Z,18.92
2023-04-18T17:46:21.014Z,15.32
2023-04-18T17:48:48.316Z,13.52
2023-04-18T17:51:19.372Z,16.08
2023-04-18T17:53:47.051Z,17.17
2023-04-18T17:56:14.227Z,17.17
2023-04-18T17:58:41.427Z,13.13
2023-04-18T18:01:19.924Z,13.60
2023-04-18T18:03:48.386Z,17.90
2023-04-18T18:06:16.199Z,14.15
2023-04-18T18:08:43.876Z,14.90
2023-04-18T18:11:11.241Z,13.73
2023-04-18T18:13:41.138Z,18.75
2023-04-18T18:16:09.069Z,14.60
2023-04-18T18:18:37.106Z,17.45
2023-04-18T18:21:04.426Z,12.93
2023-04-18T18:23:31.683Z,13.20
2023-04-18T18:25:58.890Z,15.98
2023-04-18T18:28:26.071Z,13.35
2023-04-18T18:30:54.088Z,14.70
2023-04-18T18:33:21.342Z,17.13
2023-04-18T18:35:48.500Z,12.30
2023-04-18T18:38:15.724Z,13.65
2023-04-18T18:40:43.309Z,14.20
2023-04-18T18:43:10.850Z,15.32
2023-04-18T18:45:38.772Z,17.63
2023-04-18T18:48:10.167Z,12.13
2023-04-18T18:50:37.680Z,13.25
2023-04-18T18:53:06.200Z,14.18
2023-04-18T18:55:33.473Z,14.48
2023-04-18T18:58:00.903Z,12.88
2023-04-18T19:00:28.259Z,12.77
2023-04-18T19:02:55.884Z,17.05
2023-04-18T19:05:23.296Z,17.17
2023-04-18T19:07:51.579Z,14.07
2023-04-18T19:10:18.848Z,16.65
2023-04-18T19:12:46.480Z,15.18
2023-04-18T19:15:13.902Z,15.15
2023-04-18T19:17:41.667Z,18.63
2023-04-18T19:20:09.295Z,19.00
2023-04-18T19:22:37.476Z,14.45
2023-04-18T19:25:05.143Z,17.88
2023-04-18T19:27:32.325Z,14.15
2023-04-18T19:29:59.417Z,15.13
2023-04-18T19:32:26.954Z,17.00
2023-04-18T19:34:54.783Z,12.60
2023-04-18T19:37:22.382Z,22.00
2023-04-18T19:39:49.627Z,12.82
2023-04-18T19:42:16.740Z,16.08
2023-04-18T19:44:44.340Z,18.02
2023-04-18T19:47:11.501Z,16.75
2023-04-18T19:49:38.739Z,15.32
2023-04-18T19:52:06.438Z,18.55
2023-04-18T19:54:33.699Z,17.58
2023-04-18T19:57:01.488Z,17.67
2023-04-18T19:59:28.711Z,16.95
2023-04-18T20:01:57.219Z,17.20
2023-04-18T20:04:26.122Z,22.17
2023-04-18T20:06:56.309Z,17.85
2023-04-18T20:09:23.526Z,15.27
2023-04-18T20:11:50.737Z,14.38
2023-04-18T20:14:18.085Z,16.15
2023-04-18T20:16:46.660Z,20.77
2023-04-18T20:19:14.911Z,17.58
2023-04-18T20:21:42.357Z,15.35
2023-04-18T20:24:09.763Z,18.52
2023-04-18T20:26:37.228Z,13.25
2023-04-18T20:29:04.450Z,14.60
2023-04-18T20:31:31.590Z,14.50
2023-04-18T20:33:58.740Z,23.15
2023-04-18T20:36:25.929Z,12.48
2023-04-18T20:38:53.192Z,14.18
2023-04-18T20:41:24.225Z,18.73
2023-04-18T20:43:53.809Z,20.90
2023-04-18T20:46:21.080Z,18.13
2023-04-18T20:48:48.374Z,17.60
2023-04-18T20:51:15.973Z,15.48
2023-04-18T20:53:43.197Z,18.17
2023-04-18T20:56:10.460Z,12.43
2023-04-18T20:58:37.783Z,17.15
2023-04-18T21:01:05.210Z,18.52
2023-04-18T21:03:32.613Z,18.27
2023-04-18T21:05:59.907Z,17.63
2023-04-18T21:08:27.053Z,16.67
2023-04-18T21:10:54.252Z,19.52
2023-04-18T21:13:21.575Z,12.57
2023-04-18T21:15:51.952Z,20.35
2023-04-18T21:18:19.736Z,16.35
2023-04-18T21:20:46.982Z,18.50
2023-04-18T21:23:14.347Z,22.25
2023-04-18T21:25:41.878Z,15.85
2023-04-18T21:28:09.269Z,21.58
2023-04-18T21:30:36.806Z,15.20
2023-04-18T21:33:04.431Z,20.17
2023-04-18T21:35:32.066Z,20.42
2023-04-18T21:37:59.381Z,19.30
2023-04-18T21:40:27.046Z,21.77
2023-04-18T21:42:54.228Z,18.40
2023-04-18T21:45:21.681Z,21.13
2023-04-18T21:47:49.764Z,19.67
2023-04-18T21:50:16.983Z,18.58
2023-04-18T21:52:44.201Z,16.75
2023-04-18T21:55:11.436Z,17.75
2023-04-18T21:57:38.590Z,23.17
2023-04-18T22:00:09.283Z,21.50
2023-04-18T22:02:40.649Z,23.92
2023-04-18T22:05:09.123Z,20.55
2023-04-18T22:07:50.120Z,20.08
2023-04-18T22:10:25.098Z,26.15
2023-04-18T22:12:55.291Z,18.58
2023-04-18T22:15:23.791Z,18.13
2023-04-18T22:17:52.114Z,24.60
2023-04-18T22:20:19.255Z,19.42
2023-04-18T22:22:46.330Z,21.73
2023-04-18T22:25:13.541Z,17.00
2023-04-18T22:27:40.837Z,16.88
2023-04-18T22:30:08.821Z,17.58
2023-04-18T22:32:36.088Z,21.75
2023-04-18T22:35:04.132Z,17.98
2023-04-18T22:37:31.365Z,22.92
2023-04-18T22:39:58.661Z,17.10
2023-04-18T22:42:25.926Z,17.27
2023-04-18T22:44:53.150Z,18.27
2023-04-18T22:47:20.321Z,19.42
2023-04-18T22:49:47.462Z,12.95
2023-04-18T22:52:15.612Z,16.20
2023-04-18T22:54:42.791Z,21.85
2023-04-18T22:57:09.961Z,22.05
2023-04-18T22:59:37.221Z,22.38
2023-04-18T23:02:04.602Z,20.63
2023-04-18T23:04:33.089Z,21.08
2023-04-18T23:07:00.444Z,25.67
2023-04-18T23:09:27.728Z,23.45
2023-04-18T23:11:54.865Z,25.85
2023-04-18T23:14:22.667Z,19.77
2023-04-18T23:16:49.892Z,20.70
2023-04-18T23:19:17.106Z,20.25
2023-04-18T23:21:44.469Z,20.80
2023-04-18T23:24:12.346Z,22.13
2023-04-18T23:26:40.520Z,19.75
2023-04-18T23:29:07.827Z,25.42
2023-04-18T23:31:35.301Z,24.52
2023-04-18T23:34:02.547Z,22.15
2023-04-18T23:36:29.851Z,24.38
2023-04-18T23:38:57.345Z,19.80
2023-04-18T23:41:24.577Z,19.85
2023-04-18T23:43:51.697Z,23.75
2023-04-18T23:46:19.033Z,19.50
2023-04-18T23:48:46.281Z,25.23
2023-04-18T23:51:13.450Z,20.45
2023-04-18T23:53:40.591Z,23.60
2023-04-18T23:56:07.958Z,23.20
2023-04-18T23:58:35.107Z,23.15
